Terminal Aerodrome Forecast
Issued by NWS

Home | Current Version | Previous Version | Graphics & Text | Print | Product List | Glossary On
Versions: 1 2 3 4 5 6 7 8 9 10 11 12 13 14 15 16 17 18 19 20
000
FTUS43 KGRB 210525
TAFCWA
TAF
KCWA 210525Z 2106/2206 17009KT P6SM BKN250 WS010/19035KT
     FM211500 16010G18KT P6SM VCSH BKN070
     FM211900 17013G24KT P6SM SCT045 BKN120
     FM212300 16010KT P6SM SCT035 BKN060 PROB30 2202/2206 -TSRA
      BKN035CB=

USA.gov is the U.S. government's official web portal to all federal, state and local government web resources and services.